WLW2296 VYYY-VTSG
Flight info
| Callsign | WLW2296 |
|---|---|
| Flight time | N/A |
| Altitude | 41000 |
| Route | POMEP1A POXEM M626 MENEX/N0486F400 G458 SAPUD W32 NULMA NULMA1E |
| Aircraft | A359/H-SDE2E3GHIJ3J4J5LM1ORWXY/LB1D1 |
Departure
| Time | 2026-05-05 22:10 |
|---|---|
| Airport | Yangon International Airport (VYYY) |
Arrival
| Time | N/A |
|---|---|
| Airport | Krabi International Airport (VTSG) |
| Time | Latitude | Longitude | Altitude | Speed | Heading |
|---|---|---|---|---|---|
| 2026-05-05 21:55 | 16.90247 | 96.13400 | 101 ft | 0 kts | 123° |
| 2026-05-05 21:55 | 16.90249 | 96.13396 | 101 ft | 3 kts | 123° |
| 2026-05-05 21:55 | 16.90264 | 96.13373 | 101 ft | 4 kts | 123° |
| 2026-05-05 21:55 | 16.90279 | 96.13349 | 101 ft | 4 kts | 123° |
| 2026-05-05 21:56 | 16.90294 | 96.13325 | 102 ft | 4 kts | 123° |
| 2026-05-05 21:56 | 16.90307 | 96.13304 | 101 ft | 4 kts | 115° |
| 2026-05-05 21:56 | 16.90310 | 96.13282 | 102 ft | 4 kts | 50° |
| 2026-05-05 21:56 | 16.90289 | 96.13266 | 101 ft | 3 kts | 32° |
| 2026-05-05 21:57 | 16.90285 | 96.13264 | 101 ft | 0 kts | 33° |
| 2026-05-05 22:03 | 16.90295 | 96.13270 | 101 ft | 7 kts | 32° |
| 2026-05-05 22:03 | 16.90324 | 96.13289 | 101 ft | 0 kts | 32° |
| 2026-05-05 22:04 | 16.90341 | 96.13300 | 104 ft | 8 kts | 32° |
| 2026-05-05 22:04 | 16.90414 | 96.13350 | 104 ft | 17 kts | 33° |
| 2026-05-05 22:04 | 16.90540 | 96.13435 | 105 ft | 25 kts | 33° |
| 2026-05-05 22:05 | 16.90670 | 96.13523 | 103 ft | 19 kts | 33° |
| 2026-05-05 22:05 | 16.90805 | 96.13615 | 105 ft | 26 kts | 33° |
| 2026-05-05 22:05 | 16.90959 | 96.13720 | 104 ft | 27 kts | 33° |
| 2026-05-05 22:05 | 16.91125 | 96.13833 | 102 ft | 29 kts | 33° |
| 2026-05-05 22:06 | 16.91299 | 96.13952 | 102 ft | 31 kts | 33° |
| 2026-05-05 22:06 | 16.91482 | 96.14076 | 103 ft | 32 kts | 33° |
| 2026-05-05 22:06 | 16.91608 | 96.14157 | 102 ft | 15 kts | 32° |
| 2026-05-05 22:06 | 16.91702 | 96.14217 | 101 ft | 17 kts | 31° |
| 2026-05-05 22:07 | 16.91807 | 96.14291 | 105 ft | 19 kts | 33° |
| 2026-05-05 22:07 | 16.91925 | 96.14373 | 101 ft | 21 kts | 32° |
| 2026-05-05 22:07 | 16.92047 | 96.14455 | 104 ft | 16 kts | 33° |
| 2026-05-05 22:07 | 16.92148 | 96.14523 | 102 ft | 18 kts | 33° |
| 2026-05-05 22:08 | 16.92213 | 96.14555 | 100 ft | 10 kts | 12° |
| 2026-05-05 22:08 | 16.92287 | 96.14535 | 100 ft | 12 kts | 317° |
| 2026-05-05 22:08 | 16.92336 | 96.14451 | 99 ft | 14 kts | 281° |
| 2026-05-05 22:08 | 16.92284 | 96.14379 | 100 ft | 14 kts | 216° |
| 2026-05-05 22:09 | 16.92229 | 96.14340 | 100 ft | 13 kts | 212° |
| 2026-05-05 22:09 | 16.91972 | 96.14168 | 102 ft | 81 kts | 213° |
| 2026-05-05 22:09 | 16.91301 | 96.13711 | 99 ft | 147 kts | 213° |
| 2026-05-05 22:09 | 16.90347 | 96.13055 | 463 ft | 172 kts | 214° |
| 2026-05-05 22:10 | 16.89360 | 96.12305 | 1193 ft | 181 kts | 218° |
| 2026-05-05 22:10 | 16.88331 | 96.11495 | 1898 ft | 192 kts | 217° |
| 2026-05-05 22:10 | 16.87273 | 96.10614 | 2607 ft | 197 kts | 221° |
| 2026-05-05 22:10 | 16.86268 | 96.09620 | 3273 ft | 202 kts | 228° |
| 2026-05-05 22:11 | 16.85406 | 96.08440 | 3939 ft | 208 kts | 239° |
| 2026-05-05 22:11 | 16.84835 | 96.07035 | 4577 ft | 215 kts | 256° |
| 2026-05-05 22:11 | 16.84709 | 96.05437 | 5123 ft | 230 kts | 274° |
| 2026-05-05 22:11 | 16.84468 | 96.03743 | 5537 ft | 245 kts | 244° |
| 2026-05-05 22:12 | 16.83285 | 96.02472 | 6237 ft | 251 kts | 208° |
| 2026-05-05 22:12 | 16.81622 | 96.01906 | 7024 ft | 253 kts | 197° |
| 2026-05-05 22:12 | 16.79955 | 96.01269 | 7779 ft | 258 kts | 206° |
| 2026-05-05 22:12 | 16.78378 | 96.00351 | 8534 ft | 261 kts | 214° |
| 2026-05-05 22:13 | 16.76888 | 95.99239 | 9308 ft | 265 kts | 219° |
| 2026-05-05 22:13 | 16.75464 | 95.98037 | 10081 ft | 268 kts | 220° |
| 2026-05-05 22:13 | 16.73899 | 95.96962 | 10854 ft | 271 kts | 207° |
| 2026-05-05 22:13 | 16.72107 | 95.96342 | 11683 ft | 273 kts | 191° |
| 2026-05-05 22:14 | 16.70183 | 95.96287 | 12361 ft | 285 kts | 174° |
| 2026-05-05 22:14 | 16.68216 | 95.96899 | 12697 ft | 308 kts | 155° |
| 2026-05-05 22:14 | 16.66366 | 95.98167 | 13022 ft | 329 kts | 146° |
| 2026-05-05 22:14 | 16.64456 | 95.99600 | 13349 ft | 347 kts | 146° |
| 2026-05-05 22:15 | 16.62435 | 96.01082 | 13661 ft | 363 kts | 147° |
| 2026-05-05 22:15 | 16.60322 | 96.02606 | 14084 ft | 373 kts | 147° |
| 2026-05-05 22:15 | 16.58166 | 96.04150 | 14650 ft | 379 kts | 147° |
| 2026-05-05 22:15 | 16.55976 | 96.05709 | 15212 ft | 383 kts | 147° |
| 2026-05-05 22:16 | 16.53759 | 96.07283 | 15785 ft | 387 kts | 147° |
| 2026-05-05 22:16 | 16.51521 | 96.08870 | 16343 ft | 391 kts | 147° |
| 2026-05-05 22:16 | 16.49258 | 96.10472 | 16902 ft | 395 kts | 147° |
| 2026-05-05 22:16 | 16.46974 | 96.12086 | 17445 ft | 398 kts | 147° |
| 2026-05-05 22:17 | 16.44670 | 96.13715 | 17960 ft | 402 kts | 147° |
| 2026-05-05 22:17 | 16.42346 | 96.15359 | 18467 ft | 406 kts | 147° |
| 2026-05-05 22:17 | 16.39998 | 96.17018 | 18952 ft | 410 kts | 147° |
| 2026-05-05 22:17 | 16.37623 | 96.18695 | 19459 ft | 414 kts | 147° |
| 2026-05-05 22:18 | 16.35231 | 96.20384 | 19951 ft | 417 kts | 147° |
| 2026-05-05 22:18 | 16.32820 | 96.22087 | 20419 ft | 421 kts | 147° |
| 2026-05-05 22:18 | 16.30383 | 96.23807 | 20860 ft | 425 kts | 147° |
| 2026-05-05 22:18 | 16.27929 | 96.25538 | 21319 ft | 428 kts | 147° |
| 2026-05-05 22:19 | 16.25451 | 96.27285 | 21786 ft | 431 kts | 147° |
| 2026-05-05 22:19 | 16.22954 | 96.29046 | 22236 ft | 434 kts | 147° |
| 2026-05-05 22:19 | 16.20443 | 96.30815 | 22646 ft | 438 kts | 147° |
| 2026-05-05 22:19 | 16.17907 | 96.32602 | 23076 ft | 442 kts | 147° |
| 2026-05-05 22:20 | 16.15351 | 96.34401 | 23505 ft | 445 kts | 147° |
| 2026-05-05 22:20 | 16.12814 | 96.36187 | 23885 ft | 448 kts | 147° |
| 2026-05-05 22:20 | 16.10222 | 96.38012 | 24286 ft | 451 kts | 147° |
| 2026-05-05 22:20 | 16.07577 | 96.39873 | 24709 ft | 454 kts | 147° |
| 2026-05-05 22:21 | 16.04987 | 96.41691 | 25148 ft | 457 kts | 147° |
| 2026-05-05 22:21 | 16.02342 | 96.43549 | 25577 ft | 460 kts | 147° |
| 2026-05-05 22:21 | 15.99687 | 96.45442 | 25991 ft | 464 kts | 145° |
| 2026-05-05 22:21 | 15.97204 | 96.47608 | 26418 ft | 468 kts | 135° |
| 2026-05-05 22:22 | 15.95120 | 96.50203 | 26981 ft | 469 kts | 124° |
| 2026-05-05 22:22 | 15.93446 | 96.53126 | 27442 ft | 473 kts | 118° |
| 2026-05-05 22:22 | 15.91910 | 96.56164 | 27885 ft | 477 kts | 117° |
| 2026-05-05 22:22 | 15.90383 | 96.59228 | 28343 ft | 480 kts | 117° |
| 2026-05-05 22:23 | 15.88835 | 96.62312 | 28799 ft | 483 kts | 117° |
| 2026-05-05 22:23 | 15.87274 | 96.65410 | 29252 ft | 486 kts | 117° |
| 2026-05-05 22:23 | 15.85701 | 96.68520 | 29685 ft | 488 kts | 117° |
| 2026-05-05 22:23 | 15.84115 | 96.71647 | 30091 ft | 492 kts | 117° |
| 2026-05-05 22:24 | 15.82513 | 96.74804 | 30507 ft | 494 kts | 117° |
| 2026-05-05 22:24 | 15.80906 | 96.77968 | 30876 ft | 498 kts | 117° |
| 2026-05-05 22:24 | 15.79286 | 96.81155 | 31227 ft | 501 kts | 117° |
| 2026-05-05 22:24 | 15.77656 | 96.84361 | 31581 ft | 503 kts | 117° |
| 2026-05-05 22:25 | 15.76017 | 96.87584 | 31926 ft | 506 kts | 118° |
| 2026-05-05 22:25 | 15.74369 | 96.90820 | 32256 ft | 508 kts | 118° |
| 2026-05-05 22:25 | 15.72712 | 96.94074 | 32552 ft | 511 kts | 117° |
| 2026-05-05 22:25 | 15.71048 | 96.97341 | 32855 ft | 513 kts | 118° |
| 2026-05-05 22:26 | 15.69375 | 97.00623 | 33126 ft | 516 kts | 117° |
| 2026-05-05 22:26 | 15.67696 | 97.03915 | 33408 ft | 518 kts | 118° |
| 2026-05-05 22:26 | 15.66007 | 97.07226 | 33711 ft | 519 kts | 118° |
| 2026-05-05 22:26 | 15.64317 | 97.10535 | 34087 ft | 518 kts | 118° |
| 2026-05-05 22:27 | 15.62631 | 97.13836 | 34501 ft | 517 kts | 118° |
| 2026-05-05 22:27 | 15.60949 | 97.17125 | 34901 ft | 516 kts | 118° |
| 2026-05-05 22:27 | 15.59269 | 97.20410 | 35239 ft | 515 kts | 118° |
| 2026-05-05 22:27 | 15.57593 | 97.23688 | 35627 ft | 514 kts | 118° |
| 2026-05-05 22:28 | 15.55918 | 97.26963 | 35955 ft | 514 kts | 118° |
| 2026-05-05 22:28 | 15.54245 | 97.30233 | 36245 ft | 514 kts | 118° |
| 2026-05-05 22:28 | 15.52567 | 97.33504 | 36568 ft | 514 kts | 118° |
| 2026-05-05 22:28 | 15.50892 | 97.36775 | 36878 ft | 513 kts | 118° |
| 2026-05-05 22:29 | 15.49222 | 97.40037 | 37177 ft | 512 kts | 118° |
| 2026-05-05 22:29 | 15.47546 | 97.43289 | 37530 ft | 510 kts | 118° |
| 2026-05-05 22:29 | 15.45685 | 97.46342 | 37861 ft | 507 kts | 127° |
| 2026-05-05 22:29 | 15.43371 | 97.49090 | 38165 ft | 505 kts | 137° |
| 2026-05-05 22:30 | 15.40657 | 97.51389 | 38435 ft | 503 kts | 147° |
| 2026-05-05 22:30 | 15.37662 | 97.53243 | 38715 ft | 501 kts | 152° |
| 2026-05-05 22:30 | 15.34587 | 97.54945 | 38944 ft | 501 kts | 154° |
| 2026-05-05 22:30 | 15.31487 | 97.56585 | 39168 ft | 501 kts | 154° |
| 2026-05-05 22:31 | 15.29384 | 97.57681 | 39318 ft | 501 kts | 154° |
| 2026-05-05 22:31 | 15.26269 | 97.59302 | 39533 ft | 500 kts | 154° |
| 2026-05-05 22:31 | 15.23164 | 97.60925 | 39777 ft | 499 kts | 154° |
| 2026-05-05 22:31 | 15.20072 | 97.62552 | 40001 ft | 498 kts | 154° |
| 2026-05-05 22:32 | 15.16984 | 97.64185 | 40211 ft | 498 kts | 154° |
| 2026-05-05 22:32 | 15.13903 | 97.65821 | 40379 ft | 498 kts | 154° |
| 2026-05-05 22:32 | 15.10821 | 97.67461 | 40557 ft | 498 kts | 154° |
| 2026-05-05 22:32 | 15.07739 | 97.69101 | 40721 ft | 498 kts | 153° |
| 2026-05-05 22:33 | 15.04653 | 97.70743 | 40880 ft | 498 kts | 153° |
| 2026-05-05 22:33 | 14.98528 | 97.74000 | 40915 ft | 497 kts | 153° |
| 2026-05-05 22:34 | 14.92376 | 97.77272 | 40907 ft | 497 kts | 153° |
| 2026-05-05 22:34 | 14.86226 | 97.80536 | 40907 ft | 497 kts | 153° |
| 2026-05-05 22:35 | 14.80080 | 97.83790 | 40906 ft | 497 kts | 153° |
| 2026-05-05 22:35 | 14.73923 | 97.87052 | 40908 ft | 497 kts | 153° |
| 2026-05-05 22:36 | 14.67772 | 97.90312 | 40906 ft | 497 kts | 153° |
| 2026-05-05 22:36 | 14.61624 | 97.93567 | 40907 ft | 496 kts | 153° |
| 2026-05-05 22:37 | 14.55474 | 97.96802 | 40907 ft | 496 kts | 153° |
| 2026-05-05 22:37 | 14.49330 | 98.00033 | 40907 ft | 496 kts | 153° |
| 2026-05-05 22:38 | 14.43189 | 98.03263 | 40903 ft | 495 kts | 153° |
| 2026-05-05 22:38 | 14.37050 | 98.06493 | 40894 ft | 495 kts | 153° |
| 2026-05-05 22:39 | 14.30910 | 98.09722 | 40893 ft | 495 kts | 153° |
| 2026-05-05 22:39 | 14.24776 | 98.12945 | 40895 ft | 495 kts | 153° |
| 2026-05-05 22:40 | 14.18644 | 98.16164 | 40897 ft | 494 kts | 153° |
| 2026-05-05 22:40 | 14.12514 | 98.19381 | 40896 ft | 494 kts | 153° |
| 2026-05-05 22:41 | 14.06388 | 98.22601 | 40894 ft | 494 kts | 153° |
| 2026-05-05 22:41 | 14.00254 | 98.25820 | 40887 ft | 494 kts | 153° |
| 2026-05-05 22:42 | 13.94124 | 98.29035 | 40889 ft | 494 kts | 153° |
| 2026-05-05 22:42 | 13.87997 | 98.32249 | 40856 ft | 494 kts | 153° |
| 2026-05-05 22:43 | 13.81865 | 98.35462 | 40860 ft | 495 kts | 153° |
| 2026-05-05 22:43 | 13.75734 | 98.38674 | 40861 ft | 494 kts | 153° |
| 2026-05-05 22:44 | 13.69605 | 98.41882 | 40859 ft | 494 kts | 153° |
| 2026-05-05 22:44 | 13.63469 | 98.45093 | 40860 ft | 495 kts | 153° |
| 2026-05-05 22:45 | 13.57327 | 98.48305 | 40860 ft | 495 kts | 153° |
| 2026-05-05 22:45 | 13.51184 | 98.51516 | 40860 ft | 495 kts | 153° |
| 2026-05-05 22:46 | 13.45089 | 98.54715 | 40860 ft | 495 kts | 153° |
| 2026-05-05 22:46 | 13.38969 | 98.57964 | 40880 ft | 495 kts | 153° |
| 2026-05-05 22:47 | 13.32848 | 98.61217 | 40861 ft | 495 kts | 153° |
| 2026-05-05 22:47 | 13.26730 | 98.64461 | 40874 ft | 495 kts | 153° |
| 2026-05-05 22:48 | 13.20609 | 98.67701 | 40861 ft | 495 kts | 153° |
| 2026-05-05 22:48 | 13.15102 | 98.70615 | 40870 ft | 496 kts | 153° |